createdAt,value
2022-12-01T00:03:26.665Z,32.33
2022-12-01T00:08:29.734Z,25.43
2022-12-01T00:13:32.472Z,25.43
2022-12-01T00:18:34.864Z,27.37
2022-12-01T00:23:37.245Z,26.97
2022-12-01T00:28:41.033Z,25.77
2022-12-01T00:33:43.569Z,27.40
2022-12-01T00:38:46.827Z,22.50
2022-12-01T00:43:49.445Z,24.20
2022-12-01T00:48:51.801Z,25.57
2022-12-01T00:53:54.259Z,22.43
2022-12-01T00:58:56.711Z,24.10
2022-12-01T01:03:59.057Z,18.97
2022-12-01T01:09:01.527Z,23.13
2022-12-01T01:14:04.410Z,27.20
2022-12-01T01:19:07.031Z,27.27
2022-12-01T01:24:09.695Z,30.03
2022-12-01T01:29:12.251Z,22.53
2022-12-01T01:34:15.313Z,28.17
2022-12-01T01:39:18.913Z,23.60
2022-12-01T01:44:47.105Z,23.80
2022-12-01T01:49:50.102Z,28.77
2022-12-01T01:54:55.007Z,19.57
2022-12-01T02:00:15.198Z,22.80
2022-12-01T02:05:25.281Z,26.70
2022-12-01T02:11:04.219Z,23.90
2022-12-01T02:16:16.259Z,26.50
2022-12-01T02:21:37.021Z,26.53
2022-12-01T02:26:58.103Z,20.47
2022-12-01T02:32:15.339Z,29.57
2022-12-01T02:37:26.823Z,26.40
2022-12-01T02:43:03.305Z,21.97
2022-12-01T02:48:12.445Z,37.17
2022-12-01T02:53:18.715Z,25.80
2022-12-01T02:58:21.938Z,30.97
2022-12-01T03:03:58.711Z,29.13
2022-12-01T03:09:30.681Z,27.57
2022-12-01T03:15:13.825Z,25.30
2022-12-01T03:20:27.845Z,28.60
2022-12-01T03:25:31.634Z,21.13
2022-12-01T03:30:36.786Z,26.57
2022-12-01T03:35:51.012Z,28.13
2022-12-01T03:40:59.654Z,23.23
2022-12-01T03:46:44.784Z,17.53
2022-12-01T03:51:56.160Z,20.90
2022-12-01T03:57:05.999Z,25.87
2022-12-01T04:02:08.712Z,21.17
2022-12-01T04:07:13.566Z,18.17
2022-12-01T04:12:31.267Z,19.07
2022-12-01T04:17:34.314Z,18.30
2022-12-01T04:22:36.989Z,23.07
2022-12-01T04:27:39.913Z,21.73
2022-12-01T04:32:43.528Z,20.70
2022-12-01T04:37:45.903Z,26.93
2022-12-01T04:42:48.285Z,49.53
2022-12-01T04:47:53.032Z,44.20
2022-12-01T04:52:55.535Z,30.90
2022-12-01T04:57:58.266Z,23.43
2022-12-01T05:03:00.710Z,25.20
2022-12-01T05:08:03.291Z,24.00
2022-12-01T05:13:06.326Z,30.70
2022-12-01T05:18:08.702Z,21.47
2022-12-01T05:23:16.493Z,17.03
2022-12-01T05:28:20.035Z,23.37
2022-12-01T05:33:23.800Z,16.27
2022-12-01T05:38:26.231Z,24.53
2022-12-01T05:43:29.769Z,26.93
2022-12-01T05:48:32.371Z,24.20
2022-12-01T05:53:34.833Z,16.83
2022-12-01T05:58:38.046Z,20.13
2022-12-01T06:03:40.394Z,27.43
2022-12-01T06:08:42.962Z,23.87
2022-12-01T06:13:45.454Z,17.00
2022-12-01T06:18:47.863Z,23.07
2022-12-01T06:23:50.237Z,30.20
2022-12-01T06:28:52.579Z,29.90
2022-12-01T06:33:55.066Z,33.10
2022-12-01T06:38:57.383Z,18.07
2022-12-01T06:44:00.973Z,18.83
2022-12-01T06:49:03.602Z,18.83
2022-12-01T06:54:06.318Z,18.63
2022-12-01T06:59:08.968Z,17.90
2022-12-01T07:04:11.853Z,22.13
2022-12-01T07:09:14.306Z,28.47
2022-12-01T07:14:25.183Z,31.40
2022-12-01T07:19:27.985Z,31.03
2022-12-01T07:24:33.389Z,30.53
2022-12-01T07:29:35.862Z,54.73
2022-12-01T07:34:38.373Z,37.53
2022-12-01T07:39:40.772Z,44.93
2022-12-01T07:44:43.149Z,38.97
2022-12-01T07:49:45.654Z,41.07
2022-12-01T07:54:48.211Z,32.67
2022-12-01T07:59:50.998Z,40.50
2022-12-01T08:04:53.594Z,32.87
2022-12-01T08:09:56.135Z,28.53
2022-12-01T08:14:58.651Z,33.77
2022-12-01T08:20:01.143Z,37.47
2022-12-01T08:25:04.045Z,32.40
2022-12-01T08:30:07.282Z,38.73
2022-12-01T08:35:09.824Z,30.40
2022-12-01T08:40:12.801Z,38.80
2022-12-01T08:45:15.196Z,32.93
2022-12-01T08:50:17.793Z,32.57
2022-12-01T08:55:22.006Z,27.03
2022-12-01T09:00:25.789Z,36.47
2022-12-01T09:05:28.570Z,33.40
2022-12-01T09:10:31.028Z,31.13
2022-12-01T09:15:34.234Z,26.07
2022-12-01T09:20:36.722Z,35.43
2022-12-01T09:25:39.146Z,32.20
2022-12-01T09:30:41.595Z,29.33
2022-12-01T09:35:44.013Z,31.77
2022-12-01T09:40:46.642Z,25.87
2022-12-01T09:45:55.604Z,35.00
2022-12-01T09:50:58.244Z,19.53
2022-12-01T09:56:07.190Z,23.37
2022-12-01T10:01:20.717Z,25.67
2022-12-01T10:06:37.293Z,23.87
2022-12-01T10:11:42.382Z,27.10
2022-12-01T10:17:07.339Z,25.53
2022-12-01T10:22:39.866Z,34.03
2022-12-01T10:27:58.424Z,20.00
2022-12-01T10:33:25.636Z,19.90
2022-12-01T10:38:35.326Z,20.37
2022-12-01T10:43:44.700Z,22.70
2022-12-01T10:48:58.732Z,29.77
2022-12-01T10:54:08.262Z,25.23
2022-12-01T10:59:49.196Z,28.77
2022-12-01T11:05:07.598Z,30.27
2022-12-01T11:10:12.735Z,24.70
2022-12-01T11:15:49.341Z,33.30
2022-12-01T11:21:14.396Z,32.77
2022-12-01T11:26:21.164Z,25.03
2022-12-01T11:31:37.927Z,30.67
2022-12-01T11:36:46.170Z,32.97
2022-12-01T11:41:54.631Z,24.47
2022-12-01T11:47:21.582Z,21.87
2022-12-01T11:52:28.168Z,28.73
2022-12-01T11:57:34.494Z,29.27
2022-12-01T12:02:45.137Z,28.47
2022-12-01T12:08:08.818Z,38.47
2022-12-01T12:13:17.219Z,31.60
2022-12-01T12:18:44.539Z,22.40
2022-12-01T12:24:43.627Z,28.53
2022-12-01T12:30:02.163Z,26.43
2022-12-01T12:35:40.406Z,24.63
2022-12-01T12:40:55.049Z,22.10
2022-12-01T12:46:19.934Z,28.50
2022-12-01T12:51:34.024Z,27.90
2022-12-01T12:56:37.184Z,33.60
2022-12-01T13:01:50.511Z,18.53
2022-12-01T13:07:22.371Z,23.13
2022-12-01T13:12:24.787Z,27.33
2022-12-01T13:17:39.960Z,25.63
2022-12-01T13:22:43.093Z,17.77
2022-12-01T13:27:47.487Z,38.13
2022-12-01T13:32:57.628Z,23.67
2022-12-01T13:38:23.089Z,32.30
2022-12-01T13:43:25.997Z,25.17
2022-12-01T13:48:37.530Z,28.43
2022-12-01T13:54:03.558Z,20.23
2022-12-01T14:00:01.227Z,22.10
2022-12-01T14:05:22.372Z,43.73
2022-12-01T14:10:28.942Z,19.43
2022-12-01T14:15:42.672Z,23.70
2022-12-01T14:20:47.434Z,31.10
2022-12-01T14:26:10.802Z,23.07
2022-12-01T14:31:13.994Z,15.47
2022-12-01T14:36:38.203Z,23.53
2022-12-01T14:47:25.814Z,22.63
2022-12-01T14:52:34.053Z,28.80
2022-12-01T14:57:43.189Z,21.60
2022-12-01T15:02:59.482Z,18.47
2022-12-01T15:08:40.959Z,30.93
2022-12-01T15:13:56.103Z,42.50
2022-12-01T15:18:59.097Z,23.63
2022-12-01T15:24:23.818Z,29.47
2022-12-01T15:29:40.038Z,16.83
2022-12-01T15:34:44.643Z,16.47
2022-12-01T15:39:53.735Z,18.53
2022-12-01T15:45:00.992Z,14.20
2022-12-01T15:50:05.415Z,15.67
2022-12-01T15:55:30.535Z,15.93
2022-12-01T16:00:33.259Z,14.40
2022-12-01T16:05:36.370Z,14.40
2022-12-01T16:10:39.260Z,16.67
2022-12-01T16:15:44.665Z,17.50
2022-12-01T16:20:47.370Z,13.10
2022-12-01T16:25:49.813Z,20.40
2022-12-01T16:30:52.931Z,18.13
2022-12-01T16:35:58.801Z,12.73
2022-12-01T16:41:14.207Z,14.40
2022-12-01T16:46:16.783Z,14.10
2022-12-01T16:51:29.492Z,15.53
2022-12-01T16:56:32.907Z,15.80
2022-12-01T17:01:35.386Z,14.87
2022-12-01T17:06:38.498Z,12.73
2022-12-01T17:11:40.973Z,13.77
2022-12-01T17:16:43.479Z,13.80
2022-12-01T17:21:46.960Z,12.13
2022-12-01T17:26:49.310Z,17.10
2022-12-01T17:31:52.038Z,14.73
2022-12-01T17:36:54.480Z,11.70
2022-12-01T17:41:57.281Z,12.23
2022-12-01T17:46:59.717Z,17.63
2022-12-01T17:52:02.586Z,14.13
2022-12-01T17:57:09.754Z,16.17
2022-12-01T18:02:13.221Z,12.37
2022-12-01T18:07:15.685Z,11.13
2022-12-01T18:12:18.214Z,12.53
2022-12-01T18:17:20.711Z,13.60
2022-12-01T18:22:23.371Z,11.93
2022-12-01T18:27:25.746Z,16.70
2022-12-01T18:32:28.233Z,12.37
2022-12-01T18:37:30.778Z,10.90
2022-12-01T18:42:33.362Z,13.33
2022-12-01T18:47:35.796Z,9.03
2022-12-01T18:52:38.532Z,11.17
2022-12-01T18:57:40.981Z,10.93
2022-12-01T19:02:43.674Z,10.20
2022-12-01T19:07:46.233Z,9.63
2022-12-01T19:12:48.969Z,10.17
2022-12-01T19:17:51.516Z,41.77
2022-12-01T19:22:54.129Z,66.33
2022-12-01T19:27:56.849Z,11.03
2022-12-01T19:32:59.463Z,45.33
2022-12-01T19:38:02.284Z,20.87
2022-12-01T19:43:06.063Z,40.47
2022-12-01T19:48:08.556Z,29.37
2022-12-01T19:53:11.044Z,12.43
2022-12-01T19:58:13.497Z,18.73
2022-12-01T20:03:15.962Z,12.87
2022-12-01T20:08:18.326Z,11.30
2022-12-01T20:13:20.753Z,13.50
2022-12-01T20:18:23.203Z,12.53
2022-12-01T20:28:50.700Z,10.50
2022-12-01T20:33:55.705Z,19.53
2022-12-01T20:38:58.662Z,12.23
2022-12-01T20:44:07.275Z,11.30
2022-12-01T20:49:10.197Z,11.37
2022-12-01T20:54:30.448Z,9.80
2022-12-01T20:59:35.288Z,9.50
2022-12-01T21:04:37.828Z,11.17
2022-12-01T21:09:40.374Z,9.20
2022-12-01T21:14:47.461Z,9.93
2022-12-01T21:20:01.806Z,12.60
2022-12-01T21:25:15.566Z,8.50
2022-12-01T21:30:25.978Z,13.40
2022-12-01T21:35:28.618Z,9.17
2022-12-01T21:40:31.339Z,11.03
2022-12-01T21:51:23.249Z,11.73
2022-12-01T21:56:28.215Z,15.97
2022-12-01T22:01:32.422Z,11.00
2022-12-01T22:06:39.622Z,13.20
2022-12-01T22:11:51.849Z,13.37
2022-12-01T22:16:58.354Z,12.93
2022-12-01T22:22:24.809Z,10.70
2022-12-01T22:27:32.183Z,12.27
2022-12-01T22:32:40.666Z,16.10
2022-12-01T22:37:48.906Z,12.83
2022-12-01T22:42:51.346Z,12.97
2022-12-01T22:48:02.120Z,17.77
2022-12-01T22:53:14.946Z,8.87
2022-12-01T22:58:25.217Z,14.47
2022-12-01T23:03:28.143Z,14.37
2022-12-01T23:08:30.512Z,15.43
2022-12-01T23:13:34.772Z,14.77
2022-12-01T23:18:37.217Z,12.80
2022-12-01T23:23:40.000Z,14.20
2022-12-01T23:28:42.416Z,15.53
2022-12-01T23:33:44.819Z,14.93
2022-12-01T23:38:52.593Z,12.40
2022-12-01T23:43:58.694Z,11.07
2022-12-01T23:49:09.899Z,21.73
2022-12-01T23:54:23.621Z,21.93
2022-12-01T23:59:27.370Z,15.40
